Terminal Aerodrome Forecast
Issued by NWS

Home | Current Version | Previous Version | Text Only | Print | Product List | Glossary On
Versions: 1 2 3 4 5 6 7 8 9 10 11 12 13 14 15 16 17 18 19
160
FTUS43 KSGF 041533 AAB
TAFJLN
TAF AMD
KJLN 041533Z 0416/0512 18004KT P6SM BKN004 OVC025
     FM041800 30008KT P6SM BKN015 BKN045
     FM042100 30006KT P6SM SCT090
     FM050000 VRB03KT P6SM SKC=

USA.gov is the U.S. government's official web portal to all federal, state and local government web resources and services.